Time;durP1;ratioP1;P1;durP2;ratioP2;P2;SDS_P1;SDS_P2;PMS_P1;PMS_P2;Temp;Humidity;BMP_temperature;BMP_pressure;BME280_temperature;BME280_humidity;BME280_pressure;Samples;Min_cycle;Max_cycle;Signal;HPM_P1;HPM_P2
2021/12/10 00:01:10;;;;;;;;;;;;;;;-16.11;60.16;98159.97;6400505;27;19946;-62
2021/12/10 00:04:13;;;;;;;;;;;;;;;-16.07;60.23;98148.44;6400145;27;19923;-63
2021/12/10 00:07:17;;;;;;;;;;;;;;;-16.01;60.34;98146.28;6399962;27;19930;-63
2021/12/10 00:10:21;;;;;;;;;;;;;;;-15.96;60.11;98142.38;6399829;27;19927;-63
2021/12/10 00:13:22;;;;;;;;;;;;;;;-15.94;60.00;98143.31;6400011;27;19926;-63
2021/12/10 00:16:24;;;;;;;;;;;;;;;-15.94;59.98;98137.41;6400086;27;19923;-63
2021/12/10 00:19:42;;;;;;;;;;;;;;;-15.94;60.25;98140.78;6398987;27;19918;-64
2021/12/10 00:22:51;;;;;;;;;;;;;;;-15.93;59.99;98135.00;6398812;27;20399;-63
2021/12/10 00:25:53;;;;;;;;;;;;;;;-15.91;60.21;98133.41;6399644;27;19930;-63
2021/12/10 00:29:01;;;;;;;;;;;;;;;-15.88;60.31;98141.16;6399405;27;20067;-63
2021/12/10 00:32:08;;;;;;;;;;;;;;;-15.86;60.26;98137.06;6398496;27;20312;-64
2021/12/10 00:35:12;;;;;;;;;;;;;;;-15.83;60.15;98130.47;6398693;27;19923;-63
2021/12/10 00:38:16;;;;;;;;;;;;;;;-15.83;60.28;98131.34;6399176;27;19923;-63
2021/12/10 00:41:20;;;;;;;;;;;;;;;-15.83;60.30;98125.44;6399739;27;19923;-63
2021/12/10 00:44:24;;;;;;;;;;;;;;;-15.81;60.28;98128.91;6399223;27;19923;-63
2021/12/10 00:47:28;;;;;;;;;;;;;;;-15.82;60.29;98112.03;6398728;27;19955;-63
2021/12/10 00:50:42;;;;;;;;;;;;;;;-15.82;60.33;98117.97;6399360;27;20296;-62
2021/12/10 00:53:44;;;;;;;;;;;;;;;-15.82;60.28;98117.97;6380670;27;19946;-63
2021/12/10 00:56:45;;;;;;;;;;;;;;;-15.82;60.28;98112.03;6398971;27;19984;-62
2021/12/10 00:59:47;;;;;;;;;;;;;;;-15.81;60.31;98103.69;6399039;27;19916;-62
2021/12/10 01:02:53;;;;;;;;;;;;;;;-15.80;60.40;98095.34;6398758;27;19988;-62
2021/12/10 01:06:01;;;;;;;;;;;;;;;-15.79;60.54;98097.06;6398739;27;20392;-62
2021/12/10 01:09:06;;;;;;;;;;;;;;;-15.79;60.58;98092.91;6398734;27;19923;-63
2021/12/10 01:12:07;;;;;;;;;;;;;;;-15.79;60.67;98090.41;6397446;27;20418;-63
2021/12/10 01:15:36;;;;;;;;;;;;;;;-15.78;60.14;98088.72;6398065;27;19930;-62
2021/12/10 01:25:37;;;;;;;;;;;;;;;-15.78;60.41;98091.25;6397192;27;19927;-63
2021/12/10 01:28:41;;;;;;;;;;;;;;;-15.78;60.33;98094.63;6398231;27;19933;-63
2021/12/10 01:31:42;;;;;;;;;;;;;;;-15.78;60.30;98098.81;6397361;27;20021;-63
2021/12/10 01:34:44;;;;;;;;;;;;;;;-15.79;60.02;98097.97;6397995;27;19930;-63
2021/12/10 01:37:45;;;;;;;;;;;;;;;-15.80;60.12;98095.34;6397617;27;19962;-62
2021/12/10 01:40:49;;;;;;;;;;;;;;;-15.79;60.20;98081.94;6398095;27;19930;-63
2021/12/10 01:44:00;;;;;;;;;;;;;;;-15.76;60.00;98080.47;6397373;27;19931;-62
2021/12/10 01:47:03;;;;;;;;;;;;;;;-15.72;60.30;98084.03;6397225;27;19937;-62
2021/12/10 01:50:05;;;;;;;;;;;;;;;-15.71;59.94;98086.66;6397103;27;19923;-63
2021/12/10 01:53:08;;;;;;;;;;;;;;;-15.71;60.05;98081.59;6396666;27;20292;-63
2021/12/10 01:56:16;;;;;;;;;;;;;;;-15.70;59.98;98067.34;6396897;27;20315;-63
2021/12/10 01:59:19;;;;;;;;;;;;;;;-15.72;60.18;98066.38;6397580;27;19923;-63
2021/12/10 02:02:23;;;;;;;;;;;;;;;-15.70;59.72;98062.28;6397514;27;19930;-63
2021/12/10 02:05:24;;;;;;;;;;;;;;;-15.71;59.90;98071.53;6397380;27;19923;-63
2021/12/10 02:08:25;;;;;;;;;;;;;;;-15.70;60.17;98070.72;6397453;27;19953;-63
2021/12/10 02:11:28;;;;;;;;;;;;;;;-15.72;60.02;98063.84;6397195;27;19923;-63
2021/12/10 02:14:29;;;;;;;;;;;;;;;-15.74;59.84;98063.75;6396231;27;19923;-63
2021/12/10 02:17:34;;;;;;;;;;;;;;;-15.76;59.79;98069.53;6396617;27;19923;-63
2021/12/10 02:20:37;;;;;;;;;;;;;;;-15.77;60.22;98065.25;6396265;27;19923;-62
2021/12/10 02:23:42;;;;;;;;;;;;;;;-15.80;59.82;98065.06;6396189;27;19927;-63
2021/12/10 02:27:03;;;;;;;;;;;;;;;-15.81;60.31;98056.66;6397444;27;20035;-63
2021/12/10 02:30:07;;;;;;;;;;;;;;;-15.82;60.04;98054.91;6402840;27;19923;-64
2021/12/10 02:33:10;;;;;;;;;;;;;;;-15.85;60.25;98053.09;6402310;27;20015;-64
2021/12/10 02:36:12;;;;;;;;;;;;;;;-15.89;59.95;98053.69;6401198;27;19923;-63
2021/12/10 02:39:14;;;;;;;;;;;;;;;-15.93;60.19;98049.25;6401398;27;19977;-65
2021/12/10 02:42:15;;;;;;;;;;;;;;;-15.97;60.29;98043.94;6401152;27;19923;-63
2021/12/10 02:45:19;;;;;;;;;;;;;;;-16.00;60.10;98037.06;6402108;27;19923;-63
2021/12/10 02:48:21;;;;;;;;;;;;;;;-16.06;60.31;98036.72;6400901;27;19923;-63
2021/12/10 02:51:22;;;;;;;;;;;;;;;-16.10;60.35;98032.31;6401182;27;19930;-63
2021/12/10 02:54:33;;;;;;;;;;;;;;;-16.11;60.25;98026.38;6400848;27;19923;-64
2021/12/10 02:57:37;;;;;;;;;;;;;;;-16.08;60.36;98028.22;6400589;27;20273;-63
2021/12/10 03:00:43;;;;;;;;;;;;;;;-16.08;60.29;98013.09;6400944;27;19923;-63
2021/12/10 03:03:47;;;;;;;;;;;;;;;-16.06;60.42;98011.53;6400297;27;19923;-63
2021/12/10 03:06:52;;;;;;;;;;;;;;;-16.08;60.55;98019.00;6400835;27;19923;-63
2021/12/10 03:09:53;;;;;;;;;;;;;;;-16.08;60.38;98018.13;6400636;27;19923;-63
2021/12/10 03:12:56;;;;;;;;;;;;;;;-16.04;60.33;98015.00;6401181;27;19923;-64
2021/12/10 03:16:00;;;;;;;;;;;;;;;-16.01;60.61;98017.69;6401373;27;20380;-63
2021/12/10 03:19:01;;;;;;;;;;;;;;;-15.97;60.52;98027.16;6400762;27;19930;-63
2021/12/10 03:22:02;;;;;;;;;;;;;;;-15.92;60.59;98017.34;6399143;27;20388;-63
2021/12/10 03:25:05;;;;;;;;;;;;;;;-15.88;60.35;98022.66;6399497;27;19923;-64
2021/12/10 03:28:06;;;;;;;;;;;;;;;-15.86;60.28;98021.06;6398831;27;19923;-63
2021/12/10 03:31:10;;;;;;;;;;;;;;;-15.83;60.45;98014.47;6398382;27;20450;-63
2021/12/10 03:34:13;;;;;;;;;;;;;;;-15.78;60.08;98008.03;6399365;27;19927;-63
2021/12/10 03:37:18;;;;;;;;;;;;;;;-15.72;60.35;98005.84;6398772;27;19930;-64
2021/12/10 03:40:19;;;;;;;;;;;;;;;-15.67;60.53;98012.84;6399078;27;20064;-64
2021/12/10 03:43:21;;;;;;;;;;;;;;;-15.59;60.58;98009.84;6398010;27;19923;-64
2021/12/10 03:46:23;;;;;;;;;;;;;;;-15.56;60.24;97995.78;6398092;27;19923;-64
2021/12/10 03:49:26;;;;;;;;;;;;;;;-15.52;60.16;98007.75;6398943;27;19923;-63
2021/12/10 03:52:27;;;;;;;;;;;;;;;-15.49;60.08;98002.88;6398172;27;19988;-63
2021/12/10 03:55:28;;;;;;;;;;;;;;;-15.46;60.04;98003.03;6398934;27;19927;-63
2021/12/10 03:58:32;;;;;;;;;;;;;;;-15.40;60.18;97998.34;6398889;27;19923;-63
2021/12/10 04:01:38;;;;;;;;;;;;;;;-15.31;59.66;98005.53;6397964;27;19923;-64
2021/12/10 04:04:42;;;;;;;;;;;;;;;-15.22;60.00;97997.59;6399132;27;19929;-63
2021/12/10 04:07:48;;;;;;;;;;;;;;;-15.06;59.76;97999.25;6399178;27;20459;-63
2021/12/10 04:10:50;;;;;;;;;;;;;;;-14.93;59.59;97996.59;6397619;27;19946;-64
2021/12/10 04:13:52;;;;;;;;;;;;;;;-14.83;59.23;97992.88;6398622;27;19923;-63
2021/12/10 04:16:57;;;;;;;;;;;;;;;-14.73;59.07;97998.47;6397626;27;19923;-63
2021/12/10 04:19:58;;;;;;;;;;;;;;;-14.65;58.92;98003.94;6397519;27;20387;-63
2021/12/10 04:23:02;;;;;;;;;;;;;;;-14.60;58.91;97994.94;6316824;27;2315447;-63
2021/12/10 04:26:08;;;;;;;;;;;;;;;-14.52;58.76;97990.25;6399722;27;19923;-63
2021/12/10 04:29:09;;;;;;;;;;;;;;;-14.45;58.75;97991.41;6399425;27;19923;-63
2021/12/10 04:32:13;;;;;;;;;;;;;;;-14.39;58.60;97991.72;6399447;27;19923;-64
2021/12/10 04:35:15;;;;;;;;;;;;;;;-14.37;58.80;97987.59;6397826;27;19962;-63
2021/12/10 04:38:16;;;;;;;;;;;;;;;-14.28;59.10;97990.59;6399201;27;20407;-63
2021/12/10 04:41:17;;;;;;;;;;;;;;;-14.11;58.95;97979.63;6399184;27;19919;-63
2021/12/10 04:44:18;;;;;;;;;;;;;;;-13.97;58.73;97981.97;6399349;27;19927;-63
2021/12/10 04:47:22;;;;;;;;;;;;;;;-13.80;58.36;97983.63;6399048;27;20397;-63
2021/12/10 04:50:23;;;;;;;;;;;;;;;-13.64;58.67;97978.50;6379685;27;19923;-63
2021/12/10 04:53:25;;;;;;;;;;;;;;;-13.48;58.58;97982.59;6397875;27;19929;-63
2021/12/10 04:56:28;;;;;;;;;;;;;;;-13.27;58.52;97980.22;6398563;27;19927;-63
2021/12/10 04:59:31;;;;;;;;;;;;;;;-13.03;57.94;97985.47;6398074;27;19930;-63
2021/12/10 05:02:34;;;;;;;;;;;;;;;-12.78;57.56;97981.50;6398967;27;19923;-63
2021/12/10 05:05:35;;;;;;;;;;;;;;;-12.54;57.86;97984.22;6398229;27;19930;-63
2021/12/10 05:08:39;;;;;;;;;;;;;;;-12.32;57.35;97991.06;6397624;27;19930;-63
2021/12/10 05:11:40;;;;;;;;;;;;;;;-12.18;57.24;97981.50;6397866;27;19973;-64
2021/12/10 05:14:41;;;;;;;;;;;;;;;-12.09;57.06;97989.47;6397614;27;20355;-64
2021/12/10 05:17:42;;;;;;;;;;;;;;;-12.06;56.81;97984.53;6397332;27;19922;-63
2021/12/10 05:20:48;;;;;;;;;;;;;;;-12.00;56.88;97984.78;6397669;27;19930;-63
2021/12/10 05:23:50;;;;;;;;;;;;;;;-11.90;57.04;97986.03;6398384;27;19923;-63
2021/12/10 05:26:53;;;;;;;;;;;;;;;-11.79;56.95;97978.00;6398174;27;19976;-63
2021/12/10 05:29:54;;;;;;;;;;;;;;;-11.65;56.83;97975.16;6397247;27;19929;-63
2021/12/10 05:32:56;;;;;;;;;;;;;;;-11.46;56.50;97977.63;6396870;27;19929;-63
2021/12/10 05:36:01;;;;;;;;;;;;;;;-11.19;56.28;97976.94;6396877;27;19923;-64
2021/12/10 05:39:05;;;;;;;;;;;;;;;-10.86;56.14;97973.09;6398081;27;19923;-62
2021/12/10 05:42:09;;;;;;;;;;;;;;;-10.55;55.67;97969.09;6397180;27;19923;-64
2021/12/10 05:45:14;;;;;;;;;;;;;;;-10.29;55.32;97961.50;6397670;27;19922;-62
2021/12/10 05:48:17;;;;;;;;;;;;;;;-9.98;55.08;97973.56;6396620;27;20014;-63
2021/12/10 05:51:19;;;;;;;;;;;;;;;-9.69;54.30;97969.38;6396671;27;19965;-63
2021/12/10 05:54:22;;;;;;;;;;;;;;;-9.46;54.10;97970.09;6397578;27;20002;-63
2021/12/10 05:57:23;;;;;;;;;;;;;;;-9.27;53.70;97956.25;6396234;27;19968;-64
2021/12/10 06:00:30;;;;;;;;;;;;;;;-9.07;53.00;97961.94;6397213;27;19923;-63
2021/12/10 06:03:32;;;;;;;;;;;;;;;-8.88;52.08;97963.34;6397492;27;19923;-64
2021/12/10 06:06:34;;;;;;;;;;;;;;;-8.75;52.36;97970.50;6397473;27;19930;-63
2021/12/10 06:09:37;;;;;;;;;;;;;;;-8.64;52.51;97966.56;6397467;27;20013;-64
2021/12/10 06:12:38;;;;;;;;;;;;;;;-8.48;52.28;97972.13;6396500;27;19923;-62
2021/12/10 06:15:42;;;;;;;;;;;;;;;-8.29;52.85;97971.78;6396357;27;19923;-63
2021/12/10 06:18:44;;;;;;;;;;;;;;;-8.09;51.84;97967.19;6396557;27;19926;-63
2021/12/10 06:21:45;;;;;;;;;;;;;;;-7.85;51.94;97966.06;6396092;27;19923;-63
2021/12/10 06:24:46;;;;;;;;;;;;;;;-7.60;52.55;97967.53;6397180;27;19974;-63
2021/12/10 06:27:49;;;;;;;;;;;;;;;-7.35;51.72;97951.94;6396740;27;20022;-63
2021/12/10 06:30:51;;;;;;;;;;;;;;;-7.05;50.38;97948.31;6396538;27;19923;-63
2021/12/10 06:33:52;;;;;;;;;;;;;;;-6.65;50.98;97941.47;6396641;27;19923;-63
2021/12/10 06:36:56;;;;;;;;;;;;;;;-6.22;51.07;97937.19;6396227;27;20052;-63
2021/12/10 06:39:58;;;;;;;;;;;;;;;-5.99;50.08;97938.44;6397129;27;19923;-63
2021/12/10 06:43:00;;;;;;;;;;;;;;;-5.99;49.56;97925.63;6396625;27;19930;-63
2021/12/10 06:46:04;;;;;;;;;;;;;;;-6.19;49.73;97932.97;6396935;27;19923;-63
2021/12/10 06:49:05;;;;;;;;;;;;;;;-6.38;49.99;97929.19;6377501;27;19927;-62
2021/12/10 06:52:06;;;;;;;;;;;;;;;-6.41;50.82;97929.16;6396531;27;19923;-63
2021/12/10 06:55:08;;;;;;;;;;;;;;;-6.61;50.22;97920.22;6396091;27;19923;-63
2021/12/10 06:58:11;;;;;;;;;;;;;;;-6.92;51.17;97927.28;6397365;27;19923;-64
2021/12/10 07:01:17;;;;;;;;;;;;;;;-7.21;50.58;97924.13;6396682;27;20067;-62
2021/12/10 07:04:21;;;;;;;;;;;;;;;-7.57;50.75;97921.59;6396729;27;19923;-62
2021/12/10 07:07:21;;;;;;;;;;;;;;;-7.77;51.40;97922.00;6396539;27;19930;-64
2021/12/10 07:10:25;;;;;;;;;;;;;;;-7.73;50.15;97911.03;6396625;27;19961;-63
2021/12/10 07:13:31;;;;;;;;;;;;;;;-7.90;49.67;97909.75;6399095;27;19919;-62
2021/12/10 07:16:36;;;;;;;;;;;;;;;-8.26;50.56;97905.47;6401349;27;19923;-62
2021/12/10 07:19:37;;;;;;;;;;;;;;;-8.18;50.89;97901.41;6400528;27;20381;-63
2021/12/10 07:22:38;;;;;;;;;;;;;;;-7.91;50.47;97890.13;6401345;27;19937;-62
2021/12/10 07:25:39;;;;;;;;;;;;;;;-7.65;50.31;97893.28;6401257;27;19923;-63
2021/12/10 07:28:43;;;;;;;;;;;;;;;-7.29;49.82;97893.25;6383225;27;19984;-62
2021/12/10 07:31:45;;;;;;;;;;;;;;;-6.89;49.29;97888.97;6401073;27;19923;-63
2021/12/10 07:34:46;;;;;;;;;;;;;;;-6.58;48.41;97894.69;6400907;27;19926;-63
2021/12/10 07:37:48;;;;;;;;;;;;;;;-6.54;48.70;97886.22;6400108;27;19923;-64
2021/12/10 07:40:50;;;;;;;;;;;;;;;-6.55;48.58;97884.50;6400678;27;19926;-63
2021/12/10 07:43:54;;;;;;;;;;;;;;;-6.64;48.78;97900.53;6400202;27;20416;-63
2021/12/10 07:46:55;;;;;;;;;;;;;;;-6.64;48.76;97894.56;6400101;27;20281;-63
2021/12/10 07:49:59;;;;;;;;;;;;;;;-6.50;48.22;97880.31;6400641;27;19923;-63
2021/12/10 07:53:00;;;;;;;;;;;;;;;-6.14;48.30;97866.44;6400466;27;20316;-64
2021/12/10 07:56:05;;;;;;;;;;;;;;;-5.84;48.26;97871.16;6400658;27;20320;-63
2021/12/10 07:59:10;;;;;;;;;;;;;;;-5.67;47.89;97868.84;6400212;27;19923;-63
2021/12/10 08:02:11;;;;;;;;;;;;;;;-5.54;47.48;97860.50;6400448;27;19930;-63
2021/12/10 08:05:13;;;;;;;;;;;;;;;-5.44;47.83;97852.09;6399442;27;20415;-63
2021/12/10 08:08:14;;;;;;;;;;;;;;;-5.35;47.63;97848.81;6399442;27;19923;-64
2021/12/10 08:11:21;;;;;;;;;;;;;;;-5.37;47.31;97841.94;6400121;27;19922;-63
2021/12/10 08:14:22;;;;;;;;;;;;;;;-5.33;48.06;97841.97;6400011;27;19946;-63
2021/12/10 08:17:28;;;;;;;;;;;;;;;-5.26;47.77;97836.09;6399280;27;20311;-64
2021/12/10 08:20:29;;;;;;;;;;;;;;;-5.05;47.17;97835.50;6399236;27;19923;-64
2021/12/10 08:23:36;;;;;;;;;;;;;;;-4.78;47.01;97826.41;6397918;27;19923;-63
2021/12/10 08:26:37;;;;;;;;;;;;;;;-4.59;46.66;97818.00;6399197;27;20419;-62
2021/12/10 08:29:43;;;;;;;;;;;;;;;-4.38;46.41;97821.66;6399569;27;19923;-63
2021/12/10 08:32:44;;;;;;;;;;;;;;;-4.09;45.92;97816.75;6399420;27;19923;-63
2021/12/10 08:35:51;;;;;;;;;;;;;;;-3.86;45.21;97825.50;6399456;27;20319;-63
2021/12/10 08:38:52;;;;;;;;;;;;;;;-3.81;45.45;97828.13;6399346;27;19930;-64
2021/12/10 08:41:58;;;;;;;;;;;;;;;-4.35;45.95;97830.25;6399187;27;19930;-63
2021/12/10 08:44:59;;;;;;;;;;;;;;;-4.88;46.75;97824.56;6398856;27;19930;-63
2021/12/10 08:48:00;;;;;;;;;;;;;;;-5.16;47.36;97806.28;6379306;27;19931;-63
2021/12/10 08:51:27;;;;;;;;;;;;;;;-5.34;47.75;97796.66;6398529;27;19923;-63
2021/12/10 08:54:30;;;;;;;;;;;;;;;-5.50;48.29;97790.47;6385842;27;19926;-64
2021/12/10 08:57:31;;;;;;;;;;;;;;;-5.89;48.89;97790.75;6397525;27;20041;-64
2021/12/10 09:00:33;;;;;;;;;;;;;;;-6.32;48.41;97779.91;6397899;27;20253;-63
2021/12/10 09:03:34;;;;;;;;;;;;;;;-6.48;49.06;97773.69;6397783;27;19930;-65
2021/12/10 09:06:37;;;;;;;;;;;;;;;-6.51;48.74;97783.00;6398692;27;19919;-66
2021/12/10 09:09:40;;;;;;;;;;;;;;;-6.43;48.77;97777.16;6398747;27;19922;-63
2021/12/10 09:12:43;;;;;;;;;;;;;;;-6.11;48.05;97774.28;6398625;27;20338;-64
2021/12/10 09:15:46;;;;;;;;;;;;;;;-5.21;46.99;97767.75;6398441;27;19923;-63
2021/12/10 09:18:50;;;;;;;;;;;;;;;-4.10;44.82;97772.22;6397595;27;19923;-63
2021/12/10 09:21:51;;;;;;;;;;;;;;;-2.84;42.99;97775.41;6379215;27;19923;-64
2021/12/10 09:24:55;;;;;;;;;;;;;;;-0.58;40.35;97767.22;6398319;27;19923;-63
2021/12/10 09:28:00;;;;;;;;;;;;;;;1.42;37.06;97760.88;6398567;27;19923;-64
2021/12/10 09:31:01;;;;;;;;;;;;;;;1.76;35.82;97758.63;6396873;27;19923;-63
2021/12/10 09:34:02;;;;;;;;;;;;;;;1.03;36.25;97757.94;6397092;27;19923;-64
2021/12/10 09:37:06;;;;;;;;;;;;;;;0.16;38.08;97757.16;6397825;27;20323;-63
2021/12/10 09:40:11;;;;;;;;;;;;;;;-0.85;40.40;97765.66;6398046;27;19962;-63
2021/12/10 09:43:12;;;;;;;;;;;;;;;-2.06;40.46;97761.75;6397743;27;19923;-63
2021/12/10 09:46:32;;;;;;;;;;;;;;;-3.05;42.65;97747.88;6398041;27;19922;-63
2021/12/10 09:49:36;;;;;;;;;;;;;;;-3.51;43.34;97741.69;6397676;27;19923;-64
2021/12/10 09:52:37;;;;;;;;;;;;;;;-4.07;44.61;97751.66;6396531;27;19923;-64
2021/12/10 09:55:39;;;;;;;;;;;;;;;-4.73;45.07;97747.69;6396744;27;19923;-63
2021/12/10 09:58:40;;;;;;;;;;;;;;;-5.22;46.18;97750.63;6397565;27;19923;-65
2021/12/10 10:01:42;;;;;;;;;;;;;;;-5.51;46.17;97747.72;6397093;27;20273;-63
2021/12/10 10:04:48;;;;;;;;;;;;;;;-5.90;46.86;97748.91;6378159;27;19930;-64
2021/12/10 10:07:54;;;;;;;;;;;;;;;-6.14;46.75;97749.47;6397388;27;19923;-63
2021/12/10 10:11:02;;;;;;;;;;;;;;;-6.28;46.69;97744.94;6397483;27;19923;-64
2021/12/10 10:14:05;;;;;;;;;;;;;;;-6.60;47.44;97727.38;6397417;27;19930;-64
2021/12/10 10:17:11;;;;;;;;;;;;;;;-6.76;47.09;97726.28;6397396;27;19923;-64
2021/12/10 10:20:15;;;;;;;;;;;;;;;-6.93;47.43;97728.56;6396907;27;19923;-63
2021/12/10 10:23:17;;;;;;;;;;;;;;;-7.08;47.69;97733.38;6396358;27;19923;-64
2021/12/10 10:26:21;;;;;;;;;;;;;;;-7.15;47.39;97717.06;6396776;27;19934;-63
2021/12/10 10:29:32;;;;;;;;;;;;;;;-7.19;47.76;97719.53;6378681;27;19968;-64
2021/12/10 10:32:36;;;;;;;;;;;;;;;-7.25;47.41;97720.28;6396495;27;20304;-63
2021/12/10 10:35:49;;;;;;;;;;;;;;;-7.32;47.91;97711.66;6396397;27;19923;-62
2021/12/10 10:38:55;;;;;;;;;;;;;;;-7.50;47.68;97716.41;6396235;27;19930;-63
2021/12/10 10:42:00;;;;;;;;;;;;;;;-7.58;47.95;97710.31;6396941;27;20003;-64
2021/12/10 10:45:07;;;;;;;;;;;;;;;-7.79;48.31;97711.56;6396983;27;19963;-64
2021/12/10 10:48:09;;;;;;;;;;;;;;;-7.92;48.41;97707.06;6397135;27;20008;-64
2021/12/10 10:51:13;;;;;;;;;;;;;;;-8.10;49.01;97704.09;6401124;27;19934;-63
2021/12/10 10:54:17;;;;;;;;;;;;;;;-8.24;49.37;97702.09;6401640;27;19919;-63
2021/12/10 10:57:24;;;;;;;;;;;;;;;-8.37;49.34;97695.88;6401511;27;19930;-64
2021/12/10 11:00:29;;;;;;;;;;;;;;;-8.56;49.47;97700.56;6400545;27;19923;-63
2021/12/10 11:03:37;;;;;;;;;;;;;;;-8.66;49.73;97702.91;6401315;27;19926;-64
2021/12/10 11:06:43;;;;;;;;;;;;;;;-8.70;49.47;97705.34;6401432;27;20339;-64
2021/12/10 11:09:49;;;;;;;;;;;;;;;-8.91;50.18;97710.78;6401633;27;19923;-63
2021/12/10 11:12:50;;;;;;;;;;;;;;;-9.10;50.32;97700.13;6400636;27;19930;-63
2021/12/10 11:16:02;;;;;;;;;;;;;;;-9.18;50.11;97686.31;6382650;27;19923;-63
2021/12/10 11:19:09;;;;;;;;;;;;;;;-9.28;50.48;97681.81;6401064;27;19930;-63
2021/12/10 11:22:14;;;;;;;;;;;;;;;-9.34;50.71;97694.38;6400817;27;19923;-63
2021/12/10 11:25:19;;;;;;;;;;;;;;;-9.36;50.72;97696.91;6400334;27;19934;-64
2021/12/10 11:28:22;;;;;;;;;;;;;;;-9.47;50.91;97702.53;6400768;27;19930;-64
2021/12/10 11:31:25;;;;;;;;;;;;;;;-9.60;51.12;97694.56;6399925;27;19923;-64
2021/12/10 11:34:39;;;;;;;;;;;;;;;-9.75;51.62;97696.69;6400782;27;19923;-64
2021/12/10 11:37:48;;;;;;;;;;;;;;;-9.87;51.69;97696.34;6400726;27;20243;-64
2021/12/10 11:40:56;;;;;;;;;;;;;;;-9.97;51.75;97700.31;6400352;27;19923;-63
2021/12/10 11:44:18;;;;;;;;;;;;;;;-10.09;52.03;97700.81;6400274;27;20383;-64
2021/12/10 11:47:28;;;;;;;;;;;;;;;-10.18;52.15;97700.56;6400254;27;19930;-64
2021/12/10 11:50:29;;;;;;;;;;;;;;;-10.29;52.24;97691.78;6400411;27;20060;-64
2021/12/10 11:53:41;;;;;;;;;;;;;;;-10.40;52.40;97689.78;6400206;27;19927;-63
2021/12/10 11:56:44;;;;;;;;;;;;;;;-10.45;52.58;97683.69;6399201;27;19930;-64
2021/12/10 11:59:51;;;;;;;;;;;;;;;-10.59;52.79;97692.56;6398571;27;19923;-63
2021/12/10 12:02:55;;;;;;;;;;;;;;;-10.68;53.29;97692.28;6400224;27;20388;-64
2021/12/10 12:05:59;;;;;;;;;;;;;;;-10.85;53.51;97694.31;6399298;27;19930;-65
2021/12/10 12:09:01;;;;;;;;;;;;;;;-11.00;53.77;97687.06;6398714;27;20277;-64
2021/12/10 12:12:13;;;;;;;;;;;;;;;-11.08;54.02;97685.94;6399820;27;20044;-63
2021/12/10 12:15:19;;;;;;;;;;;;;;;-11.15;53.83;97689.09;6398753;27;20335;-64
2021/12/10 12:18:26;;;;;;;;;;;;;;;-11.23;54.09;97685.47;6399572;27;19930;-65
2021/12/10 12:28:04;;;;;;;;;;;;;;;-11.36;54.38;97690.09;6398415;27;19922;-64
2021/12/10 12:31:09;;;;;;;;;;;;;;;-11.41;54.38;97676.38;6399435;27;20013;-64
2021/12/10 12:34:15;;;;;;;;;;;;;;;-11.49;54.68;97693.06;6397998;27;19923;-64
2021/12/10 12:37:18;;;;;;;;;;;;;;;-11.56;54.74;97691.13;6398293;27;19931;-64
2021/12/10 12:40:24;;;;;;;;;;;;;;;-11.66;54.57;97677.25;6399176;27;19930;-63
2021/12/10 12:43:28;;;;;;;;;;;;;;;-11.76;55.17;97673.50;6380172;27;20336;-64
2021/12/10 12:46:29;;;;;;;;;;;;;;;-11.78;55.00;97690.34;6399196;27;19929;-64
2021/12/10 12:49:37;;;;;;;;;;;;;;;-11.83;55.01;97696.97;6398014;27;20406;-64
2021/12/10 12:52:42;;;;;;;;;;;;;;;-11.81;55.28;97687.72;6398789;27;20029;-64
2021/12/10 12:55:48;;;;;;;;;;;;;;;-11.84;55.18;97690.13;6397868;27;20311;-63
2021/12/10 12:58:53;;;;;;;;;;;;;;;-11.87;55.31;97690.06;6398653;27;19922;-65
2021/12/10 13:01:56;;;;;;;;;;;;;;;-11.87;55.61;97694.28;6398473;27;19923;-64
2021/12/10 13:04:59;;;;;;;;;;;;;;;-11.86;55.31;97694.34;6398537;27;20295;-64
2021/12/10 13:08:15;;;;;;;;;;;;;;;-11.81;55.69;97695.31;6397709;27;19946;-64
2021/12/10 13:11:47;;;;;;;;;;;;;;;-11.76;55.35;97691.28;6397669;27;20391;-64
2021/12/10 13:14:56;;;;;;;;;;;;;;;-11.65;55.76;97680.66;6390169;27;19923;-63
2021/12/10 13:17:59;;;;;;;;;;;;;;;-11.58;55.40;97680.03;6397427;27;19930;-64
2021/12/10 13:21:00;;;;;;;;;;;;;;;-11.52;55.70;97677.69;6397384;27;19923;-64
2021/12/10 13:24:03;;;;;;;;;;;;;;;-11.41;55.59;97671.31;6397502;27;19975;-64
2021/12/10 13:27:06;;;;;;;;;;;;;;;-11.34;55.53;97664.78;6396783;27;20307;-63
2021/12/10 13:30:10;;;;;;;;;;;;;;;-11.25;55.28;97674.38;6396437;27;19934;-63
2021/12/10 13:33:16;;;;;;;;;;;;;;;-11.18;54.89;97679.72;6396898;27;20284;-63
2021/12/10 13:36:21;;;;;;;;;;;;;;;-11.18;54.46;97683.91;6397644;27;20023;-64
2021/12/10 13:39:25;;;;;;;;;;;;;;;-11.25;54.89;97693.00;6397721;27;19927;-63
2021/12/10 13:42:26;;;;;;;;;;;;;;;-11.31;54.83;97683.50;6397738;27;20419;-63
2021/12/10 13:45:31;;;;;;;;;;;;;;;-11.35;54.94;97671.53;6398283;27;19923;-64
2021/12/10 13:48:41;;;;;;;;;;;;;;;-11.37;54.98;97670.59;6397929;27;20011;-64
2021/12/10 13:51:47;;;;;;;;;;;;;;;-11.41;55.19;97681.47;6397787;27;19923;-64
2021/12/10 13:54:52;;;;;;;;;;;;;;;-11.42;55.40;97683.97;6396021;27;19923;-64
2021/12/10 13:58:11;;;;;;;;;;;;;;;-11.52;55.03;97680.22;6396738;27;19923;-64
2021/12/10 14:01:17;;;;;;;;;;;;;;;-11.73;55.61;97667.69;6397711;27;19927;-65
2021/12/10 14:04:24;;;;;;;;;;;;;;;-11.86;55.91;97676.59;6396794;27;20303;-63
2021/12/10 14:07:25;;;;;;;;;;;;;;;-11.97;56.10;97677.88;6396623;27;19930;-64
2021/12/10 14:10:34;;;;;;;;;;;;;;;-12.08;55.91;97671.56;6395664;27;19923;-63
2021/12/10 14:13:35;;;;;;;;;;;;;;;-12.25;56.39;97668.41;6397466;27;19930;-64
2021/12/10 14:16:47;;;;;;;;;;;;;;;-12.34;56.70;97679.09;6397293;27;19923;-64
2021/12/10 14:19:51;;;;;;;;;;;;;;;-12.44;56.63;97671.94;6397824;27;19923;-63
2021/12/10 14:22:54;;;;;;;;;;;;;;;-12.50;56.97;97674.22;6400018;27;19927;-63
2021/12/10 14:25:59;;;;;;;;;;;;;;;-12.56;56.64;97672.34;6402784;27;19923;-64
2021/12/10 14:29:09;;;;;;;;;;;;;;;-12.57;57.17;97682.41;6401609;27;19930;-64
2021/12/10 14:32:22;;;;;;;;;;;;;;;-12.60;57.05;97692.44;6401385;27;19930;-64
2021/12/10 14:35:25;;;;;;;;;;;;;;;-12.68;56.66;97690.47;6401466;27;19923;-63
2021/12/10 14:38:41;;;;;;;;;;;;;;;-12.73;57.40;97686.91;6402483;27;19923;-65
2021/12/10 14:41:45;;;;;;;;;;;;;;;-12.83;57.51;97700.00;6401027;27;20388;-64
2021/12/10 14:45:00;;;;;;;;;;;;;;;-12.90;57.46;97692.97;6401166;27;20388;-64
2021/12/10 14:48:11;;;;;;;;;;;;;;;-12.96;57.31;97672.47;6402164;27;20311;-63
2021/12/10 14:51:13;;;;;;;;;;;;;;;-13.01;57.24;97679.03;6400944;27;19933;-63
2021/12/10 14:54:16;;;;;;;;;;;;;;;-13.06;57.20;97672.91;6401893;27;20394;-64
2021/12/10 14:57:17;;;;;;;;;;;;;;;-13.07;57.48;97684.72;6401667;27;20037;-64
2021/12/10 15:00:27;;;;;;;;;;;;;;;-13.09;57.37;97675.31;6401778;27;20267;-64
2021/12/10 15:03:36;;;;;;;;;;;;;;;-13.18;57.27;97679.22;6401464;27;19970;-63
2021/12/10 15:06:56;;;;;;;;;;;;;;;-13.22;57.84;97682.41;6401857;27;20446;-64
2021/12/10 15:10:16;;;;;;;;;;;;;;;-13.28;58.02;97679.66;6401490;27;19923;-63
2021/12/10 15:13:19;;;;;;;;;;;;;;;-13.39;57.62;97683.41;6401371;27;19923;-63
2021/12/10 15:16:20;;;;;;;;;;;;;;;-13.46;57.95;97681.44;6400168;27;20009;-63
2021/12/10 15:19:27;;;;;;;;;;;;;;;-13.50;57.63;97677.03;6401511;27;19923;-63
2021/12/10 15:22:32;;;;;;;;;;;;;;;-13.52;57.70;97681.22;6401052;27;19923;-63
2021/12/10 15:25:33;;;;;;;;;;;;;;;-13.57;58.03;97676.81;6400393;27;19923;-64
2021/12/10 15:28:38;;;;;;;;;;;;;;;-13.54;58.36;97670.16;6400983;27;20021;-64
2021/12/10 15:31:39;;;;;;;;;;;;;;;-13.54;58.22;97665.06;6400034;27;19930;-63
2021/12/10 15:35:03;;;;;;;;;;;;;;;-13.53;58.18;97670.19;6400548;27;19923;-63
2021/12/10 15:38:13;;;;;;;;;;;;;;;-13.55;58.07;97678.56;6400045;27;19923;-62
2021/12/10 15:41:20;;;;;;;;;;;;;;;-13.62;58.08;97683.31;6399834;27;19937;-64
2021/12/10 15:44:21;;;;;;;;;;;;;;;-13.72;58.20;97686.28;6399535;27;20334;-64
2021/12/10 15:47:23;;;;;;;;;;;;;;;-13.80;58.44;97680.03;6400009;27;19930;-64
2021/12/10 15:50:29;;;;;;;;;;;;;;;-13.87;58.53;97670.44;6399498;27;19925;-64
2021/12/10 15:53:33;;;;;;;;;;;;;;;-13.93;58.73;97665.13;6399973;27;20013;-63
2021/12/10 15:56:39;;;;;;;;;;;;;;;-13.97;58.55;97663.28;6399345;27;19918;-64
2021/12/10 15:59:44;;;;;;;;;;;;;;;-14.00;58.54;97653.03;6400295;27;19923;-64
2021/12/10 16:02:48;;;;;;;;;;;;;;;-14.03;58.62;97654.63;6399689;27;19929;-64
2021/12/10 16:05:49;;;;;;;;;;;;;;;-14.00;58.97;97653.03;6399212;27;19945;-64